Terminal Aerodrome Forecast
Issued by NWS Boston, MA

Home | Current Version | Previous Version | Text Only | Print | Product List | Glossary On
Versions: 1 2 3 4 5 6 7 8 9 10 11 12 13 14 15 16 17 18 19 20 21 22 23 24 25 26 27 28 29 30 31 32 33 34 35 36 37 38
000
FTUS41 KBOX 050538
TAFBOS
TAF
KBOS 050538Z 0506/0612 27007KT P6SM OVC060
     FM050900 30009KT P6SM -SN OVC015
     FM051200 31009KT P6SM OVC050
     FM060300 33012KT P6SM SCT250
     FM060900 34008KT P6SM SKC=

USA.gov is the U.S. government's official web portal to all federal, state and local government web resources and services.